createdAt,value
2019-01-31T00:14:22.261Z,0
2019-01-31T00:16:48.417Z,0
2019-01-31T00:17:41.520Z,0
2019-01-31T00:18:39.995Z,0
2019-01-31T00:24:33.194Z,0
2019-01-31T00:25:24.848Z,0
2019-01-31T00:28:03.660Z,0
2019-01-31T01:00:12.686Z,0
2019-01-31T01:01:05.749Z,0
2019-01-31T01:02:02.972Z,0
2019-01-31T01:02:55.322Z,0
2019-01-31T01:07:10.179Z,0
2019-01-31T01:08:08.637Z,0
2019-01-31T01:09:07.546Z,0
2019-01-31T01:09:53.953Z,0
2019-01-31T01:10:45.313Z,0
2019-01-31T01:11:34.699Z,0
2019-01-31T01:12:24.388Z,0
2019-01-31T01:13:16.967Z,0
2019-01-31T02:11:00.648Z,0
2019-01-31T02:21:39.139Z,0
2019-01-31T03:00:50.107Z,0
2019-01-31T03:12:29.102Z,0
2019-01-31T03:13:30.155Z,0
2019-01-31T03:14:25.062Z,0
2019-01-31T03:20:20.574Z,0
2019-01-31T03:21:12.990Z,0
2019-01-31T03:22:05.886Z,0
2019-01-31T03:22:58.782Z,0
2019-01-31T03:23:51.420Z,0
2019-01-31T03:24:43.903Z,0
2019-01-31T03:42:51.195Z,0
2019-01-31T03:43:43.893Z,0
2019-01-31T03:47:37.259Z,0
2019-01-31T03:50:06.845Z,0
2019-01-31T03:51:06.677Z,0
2019-01-31T03:52:03.540Z,0
2019-01-31T03:54:09.266Z,0
2019-01-31T03:58:17.935Z,0
2019-01-31T03:59:14.813Z,0
2019-01-31T04:04:01.752Z,0
2019-01-31T04:23:20.559Z,0
2019-01-31T05:10:55.535Z,0
2019-01-31T05:11:47.950Z,0
2019-01-31T05:12:40.322Z,0
2019-01-31T05:13:32.769Z,0
2019-01-31T05:14:25.596Z,0
2019-01-31T05:15:18.428Z,0
2019-01-31T05:16:10.902Z,0
2019-01-31T05:17:03.424Z,0
2019-01-31T05:17:57.196Z,0
2019-01-31T05:18:50.014Z,0
2019-01-31T05:19:42.416Z,0
2019-01-31T05:20:36.130Z,0
2019-01-31T05:21:28.375Z,0
2019-01-31T05:22:21.427Z,0
2019-01-31T05:23:14.045Z,0
2019-01-31T05:24:09.617Z,0
2019-01-31T05:25:03.123Z,0
2019-01-31T05:25:55.059Z,0
2019-01-31T05:26:46.013Z,0
2019-01-31T05:27:33.837Z,0
2019-01-31T05:28:14.168Z,0
2019-01-31T05:28:54.513Z,0
2019-01-31T05:29:34.905Z,0
2019-01-31T05:30:15.244Z,0
2019-01-31T05:30:55.718Z,0
2019-01-31T05:31:36.047Z,0
2019-01-31T05:32:16.505Z,0
2019-01-31T05:32:58.927Z,0
2019-01-31T05:33:37.216Z,0
2019-01-31T05:34:17.633Z,0
2019-01-31T05:34:57.932Z,0
2019-01-31T05:35:38.307Z,0
2019-01-31T05:36:18.690Z,0
2019-01-31T05:36:59.132Z,0
2019-01-31T05:37:39.569Z,0
2019-01-31T05:38:19.951Z,0
2019-01-31T05:39:00.365Z,0
2019-01-31T05:39:40.772Z,0
2019-01-31T05:40:21.091Z,0
2019-01-31T05:41:01.457Z,0
2019-01-31T05:41:41.907Z,0
2019-01-31T05:42:22.205Z,0
2019-01-31T05:43:02.595Z,0
2019-01-31T05:43:43.022Z,0
2019-01-31T05:44:23.395Z,0
2019-01-31T05:45:03.807Z,0
2019-01-31T05:45:44.230Z,0
2019-01-31T05:46:24.599Z,0
2019-01-31T05:47:04.950Z,0
2019-01-31T05:47:45.461Z,0
2019-01-31T05:48:25.846Z,0
2019-01-31T05:49:06.139Z,0
2019-01-31T05:49:46.584Z,0
2019-01-31T05:50:26.883Z,0
2019-01-31T05:51:07.345Z,0
2019-01-31T05:51:47.799Z,0
2019-01-31T05:52:28.136Z,0
2019-01-31T05:53:08.527Z,0
2019-01-31T05:53:48.887Z,0
2019-01-31T05:54:29.234Z,0
2019-01-31T05:55:09.569Z,0
2019-01-31T05:55:50.022Z,0
2019-01-31T05:56:30.454Z,0
2019-01-31T05:57:10.856Z,0
2019-01-31T05:57:51.175Z,0
2019-01-31T05:58:31.569Z,0
2019-01-31T05:59:11.953Z,0
2019-01-31T05:59:52.336Z,0
2019-01-31T06:02:20.150Z,0
2019-01-31T06:03:14.341Z,0
2019-01-31T06:04:05.855Z,0
2019-01-31T06:06:20.399Z,0
2019-01-31T06:07:16.996Z,0
2019-01-31T06:08:12.661Z,0
2019-01-31T06:09:05.787Z,0
2019-01-31T06:10:01.696Z,0
2019-01-31T06:11:07.057Z,0
2019-01-31T06:11:54.232Z,0
2019-01-31T06:14:23.542Z,0
2019-01-31T06:15:17.322Z,0
2019-01-31T06:16:09.818Z,0
2019-01-31T06:17:02.176Z,0
2019-01-31T06:17:56.190Z,0
2019-01-31T06:18:51.059Z,0
2019-01-31T06:19:43.001Z,0
2019-01-31T06:20:35.943Z,0
2019-01-31T06:21:28.995Z,0
2019-01-31T06:22:24.771Z,0
2019-01-31T06:24:05.343Z,0
2019-01-31T06:29:06.294Z,0
2019-01-31T06:29:58.626Z,0
2019-01-31T06:30:51.890Z,0
2019-01-31T06:31:44.190Z,0
2019-01-31T06:32:36.757Z,0
2019-01-31T06:33:29.199Z,0
2019-01-31T06:34:21.580Z,0
2019-01-31T06:35:15.087Z,0
2019-01-31T06:36:08.575Z,0
2019-01-31T06:37:02.020Z,0
2019-01-31T06:37:55.018Z,0
2019-01-31T06:38:47.009Z,0
2019-01-31T06:39:38.949Z,0
2019-01-31T06:40:31.084Z,0
2019-01-31T06:41:24.933Z,0
2019-01-31T06:42:17.059Z,0
2019-01-31T06:43:12.056Z,0
2019-01-31T06:44:05.041Z,0
2019-01-31T06:44:59.962Z,0
2019-01-31T06:45:56.312Z,0
2019-01-31T06:46:52.050Z,0
2019-01-31T06:47:58.090Z,0
2019-01-31T06:48:56.001Z,4
2019-01-31T06:49:51.326Z,4
2019-01-31T06:50:51.496Z,0
2019-01-31T06:51:47.508Z,0
2019-01-31T06:52:43.965Z,4
2019-01-31T06:53:37.898Z,4
2019-01-31T06:54:33.631Z,4
2019-01-31T06:55:30.167Z,4
2019-01-31T06:56:25.744Z,4
2019-01-31T06:57:20.661Z,8
2019-01-31T06:58:14.743Z,4
2019-01-31T06:59:10.203Z,8
2019-01-31T07:00:06.254Z,8
2019-01-31T07:01:02.077Z,8
2019-01-31T07:03:55.287Z,12
2019-01-31T07:04:50.736Z,16
2019-01-31T07:05:45.076Z,16
2019-01-31T07:18:18.293Z,44
2019-01-31T07:19:13.937Z,48
2019-01-31T07:20:09.113Z,52
2019-01-31T07:21:03.554Z,56
2019-01-31T07:22:00.849Z,56
2019-01-31T07:22:53.450Z,60
2019-01-31T07:23:46.826Z,60
2019-01-31T07:24:41.711Z,64
2019-01-31T07:25:36.020Z,68
2019-01-31T07:26:30.121Z,72
2019-01-31T07:27:27.224Z,80
2019-01-31T07:28:23.536Z,80
2019-01-31T07:29:16.234Z,88
2019-01-31T07:30:10.698Z,92
2019-01-31T07:31:11.450Z,100
2019-01-31T07:32:08.636Z,100
2019-01-31T07:33:07.373Z,108
2019-01-31T07:35:57.441Z,128
2019-01-31T07:37:11.882Z,136
2019-01-31T07:38:10.359Z,144
2019-01-31T07:39:07.852Z,148
2019-01-31T07:40:04.890Z,156
2019-01-31T07:41:03.373Z,152
2019-01-31T07:42:02.384Z,156
2019-01-31T07:42:59.188Z,160
2019-01-31T07:43:57.875Z,160
2019-01-31T07:44:53.974Z,168
2019-01-31T07:45:51.394Z,172
2019-01-31T07:46:47.289Z,176
2019-01-31T07:47:44.526Z,180
2019-01-31T07:48:47.507Z,192
2019-01-31T07:49:56.933Z,200
2019-01-31T07:51:01.829Z,216
2019-01-31T08:23:39.776Z,716
2019-01-31T08:25:46.450Z,728
2019-01-31T08:26:43.655Z,732
2019-01-31T08:27:41.754Z,732
2019-01-31T08:28:48.606Z,732
2019-01-31T08:29:43.502Z,736
2019-01-31T08:30:45.191Z,740
2019-01-31T08:32:34.937Z,764
2019-01-31T08:33:42.893Z,784
2019-01-31T08:34:42.338Z,796
2019-01-31T08:35:42.028Z,804
2019-01-31T08:36:41.226Z,808
2019-01-31T08:40:25.317Z,864
2019-01-31T08:41:21.065Z,888
2019-01-31T08:52:53.441Z,1152
2019-01-31T08:54:28.816Z,1156
2019-01-31T08:55:17.185Z,1164
2019-01-31T09:02:41.450Z,1248
2019-01-31T09:09:00.961Z,1140
2019-01-31T09:13:46.410Z,1096
2019-01-31T09:14:45.557Z,1096
2019-01-31T09:15:45.243Z,1096
2019-01-31T09:16:43.733Z,1100
2019-01-31T09:17:40.173Z,1104
2019-01-31T09:18:36.913Z,1108
2019-01-31T09:19:33.530Z,1112
2019-01-31T09:20:34.419Z,1120
2019-01-31T09:21:36.683Z,1144
2019-01-31T09:22:39.575Z,1164
2019-01-31T09:23:41.488Z,1196
2019-01-31T09:24:41.578Z,1232
2019-01-31T09:26:59.248Z,1312
2019-01-31T09:27:39.146Z,1320
2019-01-31T09:28:20.781Z,1324
2019-01-31T09:29:02.432Z,1320
2019-01-31T09:29:45.500Z,1320
2019-01-31T09:30:26.891Z,1316
2019-01-31T09:31:07.874Z,1316
2019-01-31T09:31:48.915Z,1320
2019-01-31T09:32:31.414Z,1320
2019-01-31T09:33:12.056Z,1328
2019-01-31T09:33:53.810Z,1328
2019-01-31T09:34:35.538Z,1332
2019-01-31T09:35:17.009Z,1344
2019-01-31T09:35:58.296Z,1352
2019-01-31T09:36:38.846Z,1364
2019-01-31T09:37:19.761Z,1384
2019-01-31T09:38:00.323Z,1408
2019-01-31T09:38:41.381Z,1432
2019-01-31T09:39:21.877Z,1464
2019-01-31T09:40:02.365Z,1492
2019-01-31T09:40:43.869Z,1528
2019-01-31T09:41:24.767Z,1552
2019-01-31T09:42:04.530Z,1576
2019-01-31T09:42:45.757Z,1592
2019-01-31T09:43:26.420Z,1608
2019-01-31T09:44:07.290Z,1616
2019-01-31T09:44:48.780Z,1620
2019-01-31T09:45:29.103Z,1624
2019-01-31T09:46:10.882Z,1624
2019-01-31T09:46:52.136Z,1620
2019-01-31T09:47:32.353Z,1620
2019-01-31T09:54:48.628Z,1688
2019-01-31T09:55:29.676Z,1700
2019-01-31T09:56:09.839Z,1704
2019-01-31T09:56:53.873Z,1712
2019-01-31T09:59:07.231Z,1732
2019-01-31T09:59:53.795Z,1724
2019-01-31T10:03:47.545Z,1760
2019-01-31T10:04:36.747Z,1792
2019-01-31T10:05:16.399Z,1824
2019-01-31T10:05:56.863Z,1864
2019-01-31T10:06:37.266Z,1900
2019-01-31T10:07:17.688Z,1940
2019-01-31T10:07:59.982Z,1988
2019-01-31T10:08:40.568Z,2040
2019-01-31T10:09:20.960Z,2096
2019-01-31T10:10:01.537Z,2148
2019-01-31T10:10:42.378Z,2180
2019-01-31T10:11:22.871Z,2200
2019-01-31T10:12:04.244Z,2212
2019-01-31T10:12:48.176Z,2212
2019-01-31T10:13:28.959Z,2212
2019-01-31T10:14:09.939Z,2224
2019-01-31T10:14:51.260Z,2244
2019-01-31T10:15:32.364Z,2264
2019-01-31T10:16:13.801Z,2292
2019-01-31T10:16:53.662Z,2324
2019-01-31T10:17:36.634Z,2356
2019-01-31T10:18:17.507Z,2388
2019-01-31T10:18:58.165Z,2420
2019-01-31T10:19:39.076Z,2460
2019-01-31T10:20:20.323Z,2508
2019-01-31T10:21:00.700Z,2556
2019-01-31T10:21:42.345Z,2596
2019-01-31T10:22:22.519Z,2632
2019-01-31T10:23:04.761Z,2636
2019-01-31T10:23:45.308Z,2636
2019-01-31T10:24:25.560Z,2624
2019-01-31T10:25:06.768Z,2624
2019-01-31T10:25:47.762Z,2584
2019-01-31T10:26:27.571Z,2556
2019-01-31T10:27:08.160Z,2544
2019-01-31T10:27:49.386Z,2552
2019-01-31T10:28:30.337Z,2568
2019-01-31T10:29:10.876Z,2580
2019-01-31T11:30:50.629Z,3976
2019-01-31T11:33:20.126Z,3692
2019-01-31T11:34:08.449Z,3656
2019-01-31T11:35:03.657Z,3600
2019-01-31T11:35:55.003Z,3604
2019-01-31T11:36:46.755Z,3620
2019-01-31T11:37:41.212Z,3668
2019-01-31T11:38:31.025Z,3620
2019-01-31T11:39:26.156Z,3656
2019-01-31T11:40:17.531Z,3600
2019-01-31T11:41:12.568Z,3476
2019-01-31T11:42:02.155Z,3404
2019-01-31T11:44:43.067Z,3276
2019-01-31T11:51:51.428Z,3444
2019-01-31T11:52:40.506Z,3412
2019-01-31T11:53:29.644Z,3364
2019-01-31T11:54:19.028Z,3292
2019-01-31T11:55:07.918Z,3204
2019-01-31T11:55:56.221Z,3100
2019-01-31T11:56:45.403Z,3012
2019-01-31T11:59:40.131Z,2748
2019-01-31T12:00:29.062Z,2696
2019-01-31T12:01:17.724Z,2672
2019-01-31T12:02:05.905Z,2668
2019-01-31T12:02:55.335Z,2660
2019-01-31T12:03:44.970Z,2664
2019-01-31T12:04:35.899Z,2676
2019-01-31T12:05:24.928Z,2688
2019-01-31T12:06:13.474Z,2696
2019-01-31T12:11:55.195Z,2740
2019-01-31T12:12:44.037Z,2764
2019-01-31T12:13:32.438Z,2784
2019-01-31T12:14:21.229Z,2796
2019-01-31T12:15:09.848Z,2812
2019-01-31T12:15:58.663Z,2808
2019-01-31T12:16:47.365Z,2764
2019-01-31T12:17:36.053Z,2700
2019-01-31T12:18:24.935Z,2628
2019-01-31T12:19:13.841Z,2564
2019-01-31T12:20:02.072Z,2500
2019-01-31T12:20:50.472Z,2440
2019-01-31T12:21:39.530Z,2396
2019-01-31T12:22:28.151Z,2392
2019-01-31T12:23:16.584Z,2400
2019-01-31T12:24:15.781Z,2416
2019-01-31T12:24:54.006Z,2408
2019-01-31T12:25:43.415Z,2380
2019-01-31T12:26:31.804Z,2344
2019-01-31T12:27:20.801Z,2340
2019-01-31T12:28:09.554Z,2388
2019-01-31T12:28:59.670Z,2472
2019-01-31T12:29:47.699Z,2528
2019-01-31T12:30:36.304Z,2516
2019-01-31T12:31:24.947Z,2472
2019-01-31T12:32:14.015Z,2472
2019-01-31T12:33:03.870Z,2560
2019-01-31T12:33:53.407Z,2680
2019-01-31T12:34:43.393Z,2712
2019-01-31T12:35:31.592Z,2712
2019-01-31T12:36:20.926Z,2752
2019-01-31T12:37:09.528Z,2924
2019-01-31T12:37:58.007Z,3044
2019-01-31T12:38:46.935Z,3264
2019-01-31T12:39:35.831Z,4204
2019-01-31T12:40:24.731Z,3980
2019-01-31T12:41:13.088Z,4020
2019-01-31T12:42:02.289Z,4064
2019-01-31T12:42:50.569Z,4216
2019-01-31T12:43:39.329Z,4232
2019-01-31T12:44:27.785Z,4120
2019-01-31T12:45:16.767Z,4172
2019-01-31T12:46:05.486Z,3832
2019-01-31T12:46:54.037Z,4060
2019-01-31T12:47:42.976Z,3928
2019-01-31T12:48:31.817Z,3988
2019-01-31T12:49:21.023Z,4020
2019-01-31T12:50:09.692Z,3328
2019-01-31T12:50:58.185Z,2792
2019-01-31T12:51:46.908Z,2732
2019-01-31T12:52:35.606Z,2780
2019-01-31T12:53:23.909Z,3048
2019-01-31T12:54:13.320Z,3228
2019-01-31T12:55:01.795Z,3552
2019-01-31T12:55:50.371Z,3624
2019-01-31T12:56:39.034Z,3644
2019-01-31T12:57:28.327Z,3608
2019-01-31T12:58:16.403Z,3508
2019-01-31T12:59:04.964Z,3456
2019-01-31T12:59:53.561Z,3332
2019-01-31T13:00:42.347Z,3508
2019-01-31T13:01:30.819Z,3480
2019-01-31T13:02:19.399Z,3268
2019-01-31T13:03:08.115Z,3112
2019-01-31T13:03:58.909Z,3348
2019-01-31T13:04:52.065Z,3560
2019-01-31T13:05:43.359Z,3492
2019-01-31T13:06:30.414Z,3280
2019-01-31T13:07:19.229Z,3472
2019-01-31T13:08:08.437Z,3616
2019-01-31T13:08:57.307Z,3592
2019-01-31T13:09:46.268Z,3520
2019-01-31T13:10:35.476Z,3460
2019-01-31T13:11:23.422Z,3436
2019-01-31T13:12:12.045Z,3420
2019-01-31T13:13:01.872Z,3336
2019-01-31T13:13:53.100Z,3232
2019-01-31T13:14:43.964Z,3112
2019-01-31T13:15:34.876Z,3088
2019-01-31T13:16:22.587Z,3084
2019-01-31T13:17:13.404Z,3044
2019-01-31T13:18:03.496Z,2992
2019-01-31T13:18:54.457Z,2968
2019-01-31T13:19:47.703Z,2908
2019-01-31T13:20:39.555Z,2848
2019-01-31T13:21:33.024Z,2816
2019-01-31T13:24:58.318Z,2676
2019-01-31T13:25:41.374Z,2632
2019-01-31T13:26:21.745Z,2592
2019-01-31T13:27:05.562Z,2564
2019-01-31T13:31:48.850Z,2400
2019-01-31T13:32:28.651Z,2396
2019-01-31T13:33:10.134Z,2384
2019-01-31T13:33:51.929Z,2364
2019-01-31T13:34:44.175Z,2352
2019-01-31T13:35:30.076Z,2364
2019-01-31T13:36:10.342Z,2388
2019-01-31T13:36:51.051Z,2408
2019-01-31T13:37:31.435Z,2412
2019-01-31T13:38:14.262Z,2400
2019-01-31T13:38:55.682Z,2396
2019-01-31T13:39:36.322Z,2424
2019-01-31T13:40:17.199Z,2444
2019-01-31T13:40:57.804Z,2476
2019-01-31T13:41:41.924Z,2528
2019-01-31T13:42:20.447Z,2624
2019-01-31T13:43:00.577Z,2708
2019-01-31T13:43:42.095Z,2676
2019-01-31T13:44:22.650Z,2620
2019-01-31T13:45:04.180Z,2600
2019-01-31T13:45:44.971Z,2588
2019-01-31T13:46:26.768Z,2604
2019-01-31T13:47:06.794Z,2632
2019-01-31T13:47:47.498Z,2680
2019-01-31T13:48:29.197Z,2712
2019-01-31T13:49:09.855Z,2732
2019-01-31T13:49:50.602Z,2744
2019-01-31T13:56:04.702Z,2496
2019-01-31T13:56:45.997Z,2452
2019-01-31T13:57:26.388Z,2424
2019-01-31T13:58:09.827Z,2412
2019-01-31T13:58:47.770Z,2392
2019-01-31T13:59:28.332Z,2344
2019-01-31T14:00:08.861Z,2320
2019-01-31T14:00:51.214Z,2312
2019-01-31T14:01:32.979Z,2312
2019-01-31T14:02:14.769Z,2340
2019-01-31T14:02:55.038Z,2400
2019-01-31T14:03:38.733Z,2412
2019-01-31T14:04:21.077Z,2420
2019-01-31T14:05:02.573Z,2424
2019-01-31T14:05:45.459Z,2400
2019-01-31T14:06:27.974Z,2352
2019-01-31T14:07:10.830Z,2296
2019-01-31T14:07:52.855Z,2240
2019-01-31T14:08:34.296Z,2164
2019-01-31T14:09:19.253Z,2076
2019-01-31T14:10:01.139Z,2008
2019-01-31T14:10:43.394Z,1952
2019-01-31T14:11:23.742Z,1880
2019-01-31T14:12:05.386Z,1820
2019-01-31T14:12:46.255Z,1756
2019-01-31T14:13:27.882Z,1728
2019-01-31T14:14:09.489Z,1712
2019-01-31T14:14:53.453Z,1692
2019-01-31T14:15:36.406Z,1668
2019-01-31T14:16:19.738Z,1644
2019-01-31T14:17:03.830Z,1620
2019-01-31T14:17:47.671Z,1608
2019-01-31T14:18:32.875Z,1604
2019-01-31T14:19:13.679Z,1640
2019-01-31T14:19:57.355Z,1648
2019-01-31T14:20:39.035Z,1632
2019-01-31T14:21:20.242Z,1604
2019-01-31T14:22:00.793Z,1584
2019-01-31T14:22:43.360Z,1560
2019-01-31T14:23:33.478Z,1512
2019-01-31T14:24:14.192Z,1488
2019-01-31T14:24:55.789Z,1472
2019-01-31T14:25:36.374Z,1464
2019-01-31T14:26:16.270Z,1440
2019-01-31T14:27:02.911Z,1420
2019-01-31T14:30:21.456Z,1352
2019-01-31T14:31:05.324Z,1332
2019-01-31T14:31:46.211Z,1340
2019-01-31T14:32:27.056Z,1312
2019-01-31T14:33:10.454Z,1304
2019-01-31T14:33:55.165Z,1272
2019-01-31T14:34:35.901Z,1256
2019-01-31T14:35:16.948Z,1252
2019-01-31T14:36:02.414Z,1244
2019-01-31T14:36:48.546Z,1236
2019-01-31T14:37:31.679Z,1224
2019-01-31T14:38:12.300Z,1212
2019-01-31T14:38:53.849Z,1200
2019-01-31T14:39:35.760Z,1188
2019-01-31T14:40:17.147Z,1180
2019-01-31T14:41:02.662Z,1176
2019-01-31T14:42:12.664Z,1164
2019-01-31T14:42:54.838Z,1164
2019-01-31T14:43:35.390Z,1160
2019-01-31T14:44:20.320Z,1156
2019-01-31T14:45:01.131Z,1152
2019-01-31T14:46:38.441Z,1156
2019-01-31T14:47:19.083Z,1156
2019-01-31T14:48:01.925Z,1156
2019-01-31T14:48:42.370Z,1156
2019-01-31T14:49:22.958Z,1148
2019-01-31T14:50:03.914Z,1140
2019-01-31T14:50:45.332Z,1136
2019-01-31T15:05:45.075Z,1100
2019-01-31T15:06:53.362Z,1108
2019-01-31T15:07:56.329Z,1112
2019-01-31T15:08:54.157Z,1128
2019-01-31T15:12:39.001Z,1128
2019-01-31T15:13:36.367Z,1144
2019-01-31T15:21:50.635Z,1368
2019-01-31T15:22:40.856Z,1360
2019-01-31T15:23:41.400Z,1416
2019-01-31T15:24:30.918Z,1632
2019-01-31T15:28:38.407Z,1516
2019-01-31T15:39:59.419Z,992
2019-01-31T15:40:52.268Z,1008
2019-01-31T15:41:55.476Z,784
2019-01-31T15:42:52.149Z,572
2019-01-31T15:43:49.963Z,572
2019-01-31T15:46:58.592Z,460
2019-01-31T15:48:06.833Z,420
2019-01-31T15:49:09.461Z,384
2019-01-31T15:54:03.529Z,288
2019-01-31T15:55:02.532Z,272
2019-01-31T15:56:10.722Z,260
2019-01-31T15:57:16.486Z,244
2019-01-31T15:58:17.379Z,236
2019-01-31T15:59:22.184Z,224
2019-01-31T16:03:27.717Z,180
2019-01-31T16:04:25.676Z,172
2019-01-31T16:05:23.080Z,164
2019-01-31T16:06:18.349Z,156
2019-01-31T16:09:25.940Z,132
2019-01-31T16:10:21.083Z,128
2019-01-31T16:11:13.673Z,120
2019-01-31T16:12:08.953Z,112
2019-01-31T16:13:04.771Z,104
2019-01-31T16:13:58.896Z,100
2019-01-31T16:14:54.673Z,96
2019-01-31T16:17:54.637Z,76
2019-01-31T16:18:49.790Z,68
2019-01-31T16:23:31.691Z,44
2019-01-31T16:24:24.939Z,40
2019-01-31T16:25:19.851Z,36
2019-01-31T16:26:18.392Z,32
2019-01-31T16:27:18.964Z,28
2019-01-31T16:28:21.395Z,28
2019-01-31T16:29:21.753Z,24
2019-01-31T16:30:23.873Z,20
2019-01-31T16:31:32.339Z,20
2019-01-31T16:32:38.649Z,16
2019-01-31T17:08:55.162Z,0
2019-01-31T17:09:51.552Z,0
2019-01-31T17:10:46.361Z,0
2019-01-31T17:11:57.661Z,0
2019-01-31T17:13:05.369Z,0
2019-01-31T17:14:04.777Z,0
2019-01-31T17:15:17.946Z,0
2019-01-31T17:16:27.598Z,0
2019-01-31T17:17:31.649Z,0
2019-01-31T17:18:35.684Z,0
2019-01-31T17:19:36.642Z,0
2019-01-31T17:20:40.874Z,0
2019-01-31T17:21:41.066Z,0
2019-01-31T17:22:51.933Z,0
2019-01-31T17:23:55.947Z,0
2019-01-31T17:24:57.663Z,0
2019-01-31T17:25:55.454Z,0
2019-01-31T17:26:58.904Z,0
2019-01-31T17:27:59.854Z,0
2019-01-31T17:29:02.291Z,0
2019-01-31T17:30:14.697Z,0
2019-01-31T17:31:19.836Z,0
2019-01-31T17:32:25.309Z,0
2019-01-31T17:33:31.105Z,0
2019-01-31T17:34:30.509Z,0
2019-01-31T17:35:26.942Z,0
2019-01-31T17:36:20.257Z,0
2019-01-31T17:37:06.834Z,0
2019-01-31T17:37:47.997Z,0
2019-01-31T17:38:35.852Z,0
2019-01-31T17:39:23.176Z,0
2019-01-31T17:40:07.994Z,0
2019-01-31T17:40:59.591Z,0
2019-01-31T17:42:00.725Z,0
2019-01-31T17:42:45.795Z,0
2019-01-31T17:43:29.861Z,0
2019-01-31T17:44:10.258Z,0
2019-01-31T17:44:50.608Z,0
2019-01-31T17:45:31.158Z,0
2019-01-31T17:46:12.904Z,0
2019-01-31T17:46:53.331Z,0
2019-01-31T17:47:33.777Z,0
2019-01-31T17:48:14.124Z,0
2019-01-31T17:48:54.519Z,0
2019-01-31T17:49:34.873Z,0
2019-01-31T17:50:15.283Z,0
2019-01-31T17:50:55.676Z,0
2019-01-31T17:51:36.095Z,0
2019-01-31T17:52:16.444Z,0
2019-01-31T17:52:56.834Z,0
2019-01-31T17:53:37.212Z,0
2019-01-31T17:54:17.602Z,0
2019-01-31T17:54:58.264Z,0
2019-01-31T17:55:41.306Z,0
2019-01-31T17:56:18.787Z,0
2019-01-31T17:56:59.233Z,0
2019-01-31T17:57:39.608Z,0
2019-01-31T17:58:20.046Z,0
2019-01-31T17:59:00.411Z,0
2019-01-31T17:59:40.843Z,0
2019-01-31T18:00:24.053Z,0
2019-01-31T18:01:01.559Z,0
2019-01-31T18:01:41.976Z,0
2019-01-31T18:02:22.323Z,0
2019-01-31T18:03:02.835Z,0
2019-01-31T18:03:43.195Z,0
2019-01-31T18:04:23.611Z,0
2019-01-31T18:05:03.962Z,0
2019-01-31T18:05:44.444Z,0
2019-01-31T18:06:24.940Z,0
2019-01-31T18:07:05.349Z,0
2019-01-31T18:07:45.869Z,0
2019-01-31T18:08:26.237Z,0
2019-01-31T18:09:06.849Z,0
2019-01-31T18:09:47.228Z,0
2019-01-31T18:10:27.685Z,0
2019-01-31T18:11:08.042Z,0
2019-01-31T18:11:48.574Z,0
2019-01-31T18:12:28.903Z,0
2019-01-31T18:13:09.238Z,0
2019-01-31T18:13:52.403Z,0
2019-01-31T18:14:30.078Z,0
2019-01-31T18:15:10.420Z,0
2019-01-31T18:15:50.826Z,0
2019-01-31T18:16:31.318Z,0
2019-01-31T18:17:11.703Z,0
2019-01-31T18:17:52.099Z,0
2019-01-31T18:18:32.565Z,0
2019-01-31T18:19:13.044Z,0
2019-01-31T18:19:53.721Z,0
2019-01-31T18:20:34.162Z,0
2019-01-31T18:21:14.657Z,0
2019-01-31T18:21:55.064Z,0
2019-01-31T18:22:35.588Z,0
2019-01-31T18:23:15.944Z,0
2019-01-31T18:23:56.432Z,0
2019-01-31T18:24:36.877Z,0
2019-01-31T18:25:17.289Z,0
2019-01-31T18:25:57.671Z,0
2019-01-31T18:26:38.459Z,0
2019-01-31T18:27:18.948Z,0
2019-01-31T18:27:59.568Z,0
2019-01-31T18:28:40.043Z,0
2019-01-31T18:29:20.429Z,0
2019-01-31T18:30:00.889Z,0
2019-01-31T18:30:41.379Z,0
2019-01-31T18:31:21.723Z,0
2019-01-31T18:32:02.083Z,0
2019-01-31T18:32:42.597Z,0
2019-01-31T18:33:22.946Z,0
2019-01-31T18:34:03.298Z,0
2019-01-31T18:34:43.783Z,0
2019-01-31T18:35:24.182Z,0
2019-01-31T18:36:04.812Z,0
2019-01-31T18:36:45.278Z,0
2019-01-31T18:37:26.053Z,0
2019-01-31T18:38:06.780Z,0
2019-01-31T18:38:47.219Z,0
2019-01-31T18:39:27.654Z,0
2019-01-31T18:40:08.143Z,0
2019-01-31T18:40:48.526Z,0
2019-01-31T18:41:29.019Z,0
2019-01-31T18:42:09.452Z,0
2019-01-31T18:44:39.715Z,0
2019-01-31T18:45:34.280Z,0
2019-01-31T18:46:27.623Z,0
2019-01-31T18:47:20.926Z,0
2019-01-31T18:48:14.547Z,0
2019-01-31T18:49:07.274Z,0
2019-01-31T18:49:59.546Z,0
2019-01-31T18:50:52.853Z,0
2019-01-31T18:51:46.636Z,0
2019-01-31T18:52:41.717Z,0
2019-01-31T18:53:33.711Z,0
2019-01-31T18:54:26.125Z,0
2019-01-31T18:55:18.648Z,0
2019-01-31T18:56:12.659Z,0
2019-01-31T18:57:05.564Z,0
2019-01-31T18:57:59.338Z,0
2019-01-31T18:58:54.752Z,0
2019-01-31T18:59:51.323Z,0
2019-01-31T19:00:49.129Z,0
2019-01-31T19:01:45.145Z,0
2019-01-31T19:02:42.814Z,0
2019-01-31T19:03:40.111Z,0
2019-01-31T19:04:36.428Z,0
2019-01-31T19:05:36.275Z,0
2019-01-31T19:06:30.786Z,0
2019-01-31T19:07:25.743Z,0
2019-01-31T19:08:21.542Z,0
2019-01-31T19:09:16.607Z,0
2019-01-31T19:10:13.938Z,0
2019-01-31T19:11:08.573Z,0
2019-01-31T19:12:05.543Z,0
2019-01-31T19:13:03.310Z,0
2019-01-31T19:13:59.230Z,0
2019-01-31T19:14:54.867Z,0
2019-01-31T19:15:52.095Z,0
2019-01-31T19:16:48.888Z,0
2019-01-31T19:17:45.482Z,0
2019-01-31T19:18:38.732Z,0
2019-01-31T19:19:35.003Z,0
2019-01-31T19:20:29.380Z,0
2019-01-31T19:21:26.264Z,0
2019-01-31T19:22:27.560Z,0
2019-01-31T20:06:00.319Z,0
2019-01-31T20:06:57.396Z,0
2019-01-31T20:07:37.758Z,0
2019-01-31T20:08:19.147Z,0
2019-01-31T20:08:59.578Z,0
2019-01-31T20:09:39.973Z,0
2019-01-31T20:10:20.388Z,0
2019-01-31T20:11:02.586Z,0
2019-01-31T20:11:42.926Z,0
2019-01-31T20:12:23.294Z,0
2019-01-31T20:13:17.695Z,0
2019-01-31T20:13:58.123Z,0
2019-01-31T20:14:40.513Z,0
2019-01-31T20:15:20.808Z,0
2019-01-31T20:16:01.242Z,0
2019-01-31T20:16:41.682Z,0
2019-01-31T20:17:22.092Z,0
2019-01-31T20:18:02.413Z,0
2019-01-31T20:18:42.867Z,0
2019-01-31T20:19:27.217Z,0
2019-01-31T20:20:07.557Z,0
2019-01-31T20:20:49.572Z,0
2019-01-31T20:21:29.921Z,0
2019-01-31T20:22:15.060Z,0
2019-01-31T20:25:01.558Z,0
2019-01-31T20:28:38.433Z,0
2019-01-31T20:31:07.156Z,0
2019-01-31T20:31:49.547Z,0
2019-01-31T20:32:30.678Z,0
2019-01-31T20:33:11.211Z,0
2019-01-31T20:33:51.591Z,0
2019-01-31T20:34:42.846Z,0
2019-01-31T20:35:23.198Z,0
2019-01-31T20:36:03.585Z,0
2019-01-31T20:38:24.833Z,0
2019-01-31T20:39:07.283Z,0
2019-01-31T20:39:47.258Z,0
2019-01-31T20:40:29.477Z,0
2019-01-31T20:41:11.751Z,0
2019-01-31T20:41:53.983Z,0
2019-01-31T20:42:32.648Z,0
2019-01-31T20:47:32.998Z,0
2019-01-31T20:48:13.499Z,0
2019-01-31T20:48:56.741Z,0
2019-01-31T20:49:37.058Z,0
2019-01-31T20:50:27.448Z,0
2019-01-31T20:51:07.868Z,0
2019-01-31T20:51:48.248Z,0
2019-01-31T20:52:28.998Z,0
2019-01-31T20:53:09.124Z,0
2019-01-31T20:53:50.532Z,0
2019-01-31T21:21:32.836Z,0
2019-01-31T21:33:57.632Z,0
2019-01-31T21:48:08.362Z,0
2019-01-31T21:50:35.233Z,0
2019-01-31T21:51:15.329Z,0
2019-01-31T21:51:56.216Z,0
2019-01-31T21:52:36.839Z,0
2019-01-31T21:53:21.804Z,0
2019-01-31T21:54:03.091Z,0
2019-01-31T21:54:44.064Z,0
2019-01-31T22:00:02.438Z,0
2019-01-31T23:38:49.718Z,0
2019-01-31T23:47:07.043Z,0
